Time;durP1;ratioP1;P1;durP2;ratioP2;P2;SDS_P1;SDS_P2;PMS_P1;PMS_P2;Temp;Humidity;BMP_temperature;BMP_pressure;BME280_temperature;BME280_humidity;BME280_pressure;Samples;Min_cycle;Max_cycle;Signal;HPM_P1;HPM_P2
2022/05/11 04:01:57;;;;;;;11.37;9.60;;;15.90;96.30;;;;;;5258425;23;20563;-72
2022/05/11 04:04:22;;;;;;;15.17;9.67;;;15.90;96.30;;;;;;4965105;28;20817;-73
2022/05/11 04:06:48;;;;;;;13.10;9.63;;;16.00;96.30;;;;;;4954749;29;20175;-73
2022/05/11 04:09:13;;;;;;;9.73;5.10;;;16.10;96.30;;;;;;4954277;29;20187;-73
2022/05/11 04:11:39;;;;;;;6.37;5.27;;;16.10;96.30;;;;;;4954657;29;20713;-73
2022/05/11 04:14:05;;;;;;;6.73;4.00;;;16.10;96.30;;;;;;4956622;29;20179;-73
2022/05/11 04:16:30;;;;;;;8.60;4.67;;;16.30;96.30;;;;;;4961902;29;20659;-73
2022/05/11 04:18:56;;;;;;;7.37;5.37;;;16.20;96.30;;;;;;4955103;29;20430;-72
2022/05/11 04:37:32;;;;;;;14.57;7.97;;;16.30;96.30;;;;;;4953188;28;20478;-75
2022/05/11 05:05:18;;;;;;;;;;;;;;;;;;;;;
2022/05/11 05:07:49;;;;;;;11.73;4.30;;;16.80;96.30;;;;;;4934386;29;20431;-74
2022/05/11 05:10:16;;;;;;;6.43;4.43;;;16.90;96.30;;;;;;4934773;29;20506;-74
2022/05/11 05:12:43;;;;;;;5.63;3.80;;;17.00;96.30;;;;;;4934646;29;20926;-73
2022/05/11 05:15:11;;;;;;;7.40;6.60;;;17.00;96.30;;;;;;4934819;29;20919;-76
2022/05/11 05:17:37;;;;;;;4.53;4.10;;;17.20;96.30;;;;;;4934260;29;20815;-74
2022/05/11 05:20:04;;;;;;;6.50;4.83;;;17.30;96.30;;;;;;4963795;28;20417;-74
2022/05/11 06:38:18;;;;;;;7.27;3.70;;;20.40;94.80;;;;;;5130359;23;20505;-74
2022/05/11 06:40:43;;;;;;;4.90;3.33;;;20.70;94.50;;;;;;4962331;28;20453;-74
2022/05/11 06:43:08;;;;;;;5.40;3.43;;;21.00;92.60;;;;;;4957121;28;20199;-73
2022/05/11 06:45:34;;;;;;;5.03;3.40;;;21.00;93.50;;;;;;4949644;28;20210;-72
2022/05/11 06:47:59;;;;;;;6.93;3.33;;;21.00;92.80;;;;;;4968610;28;20568;-74
2022/05/11 06:50:27;;;;;;;4.73;3.13;;;21.30;91.80;;;;;;4955497;29;20183;-74
2022/05/11 06:52:54;;;;;;;4.90;2.90;;;22.00;90.40;;;;;;4959443;28;20673;-74
2022/05/11 07:00:48;;;;;;;4.10;3.67;;;25.60;80.30;;;;;;4938038;29;20458;-74
2022/05/11 07:03:14;;;;;;;5.70;3.27;;;26.30;79.20;;;;;;4949526;28;20430;-74
2022/05/11 07:05:41;;;;;;;8.43;3.10;;;26.50;77.70;;;;;;4967690;28;20186;-75
2022/05/11 07:08:08;;;;;;;3.13;2.80;;;27.20;76.90;;;;;;4954865;29;20410;-75
2022/05/11 07:10:38;;;;;;;3.93;2.87;;;27.20;76.10;;;;;;4964910;28;20464;-73
2022/05/11 07:13:04;;;;;;;3.30;3.00;;;27.20;76.80;;;;;;4966905;28;20469;-74
2022/05/11 07:15:30;;;;;;;3.67;3.23;;;28.20;75.40;;;;;;4958056;28;20472;-73
2022/05/11 07:17:59;;;;;;;4.60;3.40;;;28.60;74.70;;;;;;4966082;28;20792;-74
2022/05/11 07:20:36;;;;;;;3.13;2.80;;;28.80;75.40;;;;;;4952523;28;20654;-75
2022/05/11 07:23:03;;;;;;;4.50;2.90;;;29.00;76.70;;;;;;4958078;28;20442;-74
2022/05/11 07:25:29;;;;;;;3.30;3.00;;;28.30;73.20;;;;;;4936458;29;20430;-74
2022/05/11 07:28:00;;;;;;;3.73;3.30;;;28.00;74.20;;;;;;4958230;28;20409;-74
2022/05/11 07:30:33;;;;;;;3.07;2.77;;;27.70;76.40;;;;;;4949692;28;20175;-74
2022/05/11 07:33:00;;;;;;;3.30;2.60;;;28.40;75.00;;;;;;4962086;28;20476;-73
2022/05/11 07:35:27;;;;;;;6.27;2.33;;;27.90;74.10;;;;;;4972936;28;20413;-75
2022/05/11 07:37:52;;;;;;;2.90;2.47;;;27.50;78.00;;;;;;4963716;28;20516;-75
2022/05/11 07:40:19;;;;;;;10.70;3.17;;;27.90;76.30;;;;;;4965954;28;20504;-74
2022/05/11 07:42:45;;;;;;;3.33;2.93;;;28.30;71.70;;;;;;4935790;29;20593;-74
2022/05/11 07:45:12;;;;;;;6.23;2.63;;;27.60;76.60;;;;;;4949549;28;20973;-74
2022/05/11 07:47:39;;;;;;;5.87;2.70;;;27.40;72.80;;;;;;4948738;28;20194;-74
2022/05/11 07:50:05;;;;;;;5.47;2.60;;;27.90;78.20;;;;;;4955111;28;20461;-72
2022/05/11 07:52:31;;;;;;;4.90;2.70;;;27.10;74.20;;;;;;4969264;28;20491;-75
2022/05/11 07:54:56;;;;;;;5.97;2.37;;;27.40;77.90;;;;;;4962091;28;20819;-75
2022/05/11 08:00:08;;;;;;;7.10;2.20;;;26.40;75.40;;;;;;4935829;29;20238;-75
2022/05/11 08:02:35;;;;;;;6.10;2.67;;;25.80;78.30;;;;;;4950753;28;20492;-74
2022/05/11 08:05:05;;;;;;;4.60;2.40;;;26.20;77.00;;;;;;4970336;28;20429;-75
2022/05/11 08:07:42;;;;;;;3.37;2.20;;;26.30;77.20;;;;;;4950745;29;20427;-73
2022/05/11 08:10:12;;;;;;;4.67;2.10;;;26.30;74.10;;;;;;4965181;28;20448;-74
2022/05/11 08:12:38;;;;;;;3.20;2.60;;;26.10;75.10;;;;;;4954336;28;20472;-75
2022/05/11 08:15:04;;;;;;;6.50;2.33;;;27.30;75.40;;;;;;4963671;28;20414;-75
2022/05/11 08:17:34;;;;;;;2.40;2.20;;;27.30;75.80;;;;;;4953074;28;20201;-74
2022/05/11 08:20:00;;;;;;;4.00;2.73;;;27.90;74.90;;;;;;4947427;28;20468;-72
2022/05/11 08:22:27;;;;;;;3.90;2.80;;;28.60;70.80;;;;;;4968109;28;21164;-72
2022/05/11 08:24:54;;;;;;;2.53;2.13;;;28.70;72.40;;;;;;4935391;29;20423;-73
2022/05/11 08:27:23;;;;;;;4.77;2.40;;;28.50;68.30;;;;;;4962262;28;20773;-73
2022/05/11 08:35:18;;;;;;;2.50;2.30;;;29.90;67.50;;;;;;4945846;28;20505;-73
2022/05/11 08:37:44;;;;;;;4.10;2.60;;;29.70;67.40;;;;;;4962668;28;20535;-74
2022/05/11 08:40:22;;;;;;;4.20;2.40;;;27.50;70.60;;;;;;4939618;28;20579;-73
2022/05/11 08:42:48;;;;;;;6.70;2.53;;;26.80;74.30;;;;;;4954059;29;20182;-73
2022/05/11 08:45:14;;;;;;;3.10;2.50;;;26.20;74.60;;;;;;4969504;28;20432;-73
2022/05/11 08:47:46;;;;;;;3.13;2.77;;;26.60;78.10;;;;;;4962706;28;20189;-73
2022/05/11 08:50:16;;;;;;;3.60;2.67;;;27.70;75.50;;;;;;4961517;28;20228;-75
2022/05/11 08:53:02;;;;;;;3.03;2.33;;;29.30;69.90;;;;;;4949485;28;20455;-74
2022/05/11 08:55:47;;;;;;;4.50;2.60;;;28.50;69.10;;;;;;4952777;28;20428;-74
2022/05/11 08:58:31;;;;;;;2.90;2.50;;;27.80;73.90;;;;;;4963384;28;20421;-74
2022/05/11 09:00:57;;;;;;;5.70;3.23;;;27.50;73.20;;;;;;4954998;28;20985;-74
2022/05/11 09:03:33;;;;;;;3.50;2.30;;;28.00;74.20;;;;;;4972273;28;20421;-74
2022/05/11 09:06:06;;;;;;;4.37;2.57;;;28.40;74.50;;;;;;4950501;28;20565;-73
2022/05/11 09:08:38;;;;;;;3.17;2.50;;;28.40;74.10;;;;;;4957982;28;20445;-75
2022/05/11 09:11:05;;;;;;;5.83;2.27;;;26.90;73.40;;;;;;4953646;28;20434;-74
2022/05/11 09:13:30;;;;;;;8.97;2.03;;;27.00;75.40;;;;;;4960598;28;20612;-73
2022/05/11 09:16:00;;;;;;;3.17;2.50;;;27.60;70.90;;;;;;4961977;28;20497;-73
2022/05/11 09:18:31;;;;;;;3.30;2.23;;;27.50;69.50;;;;;;4941247;28;20205;-73
2022/05/11 09:21:00;;;;;;;6.07;2.63;;;27.70;68.70;;;;;;4954247;28;20456;-73
2022/05/11 09:23:36;;;;;;;3.50;2.30;;;28.00;68.50;;;;;;4957972;28;20454;-73
2022/05/11 09:26:14;;;;;;;3.80;2.33;;;28.60;71.80;;;;;;4959096;28;20433;-73
2022/05/11 09:28:42;;;;;;;8.40;2.27;;;28.50;68.70;;;;;;4952597;28;20471;-73
2022/05/11 09:31:17;;;;;;;3.30;2.97;;;28.10;69.30;;;;;;4953570;28;21020;-73
2022/05/11 09:34:03;;;;;;;2.63;2.17;;;28.10;67.70;;;;;;4947253;28;20515;-72
2022/05/11 09:36:41;;;;;;;10.53;2.47;;;28.50;71.10;;;;;;4944070;28;21164;-75
2022/05/11 09:39:16;;;;;;;4.23;2.33;;;28.40;69.50;;;;;;4964535;28;20429;-75
2022/05/11 09:41:51;;;;;;;3.50;2.43;;;28.80;68.00;;;;;;4953222;28;20570;-73
2022/05/11 09:44:23;;;;;;;3.47;2.43;;;29.40;71.80;;;;;;4930805;29;20430;-74
2022/05/11 09:46:50;;;;;;;4.23;2.30;;;29.40;68.00;;;;;;4944111;28;20456;-74
2022/05/11 09:49:15;;;;;;;8.27;2.50;;;28.30;68.10;;;;;;4968009;28;20408;-73
2022/05/11 09:51:50;;;;;;;4.53;2.50;;;28.20;70.10;;;;;;4941983;29;20521;-73
2022/05/11 09:54:38;;;;;;;21.70;3.13;;;27.80;71.00;;;;;;4961469;28;20542;-73
2022/05/11 09:57:11;;;;;;;4.07;2.20;;;27.80;73.90;;;;;;4942160;28;20421;-74
2022/05/11 09:59:39;;;;;;;7.93;2.57;;;26.70;69.80;;;;;;4956976;28;20421;-74
2022/05/11 10:02:32;;;;;;;3.83;2.60;;;26.80;75.70;;;;;;4948199;28;20999;-75
2022/05/11 10:05:06;;;;;;;3.30;2.23;;;27.80;71.20;;;;;;4949002;28;20422;-74
2022/05/11 10:07:49;;;;;;;3.70;2.57;;;28.00;71.30;;;;;;4968279;28;20484;-75
2022/05/11 10:10:37;;;;;;;6.30;2.47;;;27.80;72.00;;;;;;4956864;29;20921;-74
2022/05/11 10:13:26;;;;;;;5.30;2.23;;;28.00;73.10;;;;;;4953047;28;20464;-73
2022/05/11 10:58:25;;;;;;;2.63;2.40;;;28.20;67.60;;;;;;5130932;23;20478;-75
2022/05/11 11:01:04;;;;;;;4.43;2.13;;;28.20;65.70;;;;;;4967817;28;20444;-74
2022/05/11 11:03:34;;;;;;;2.70;2.13;;;29.20;71.90;;;;;;4974735;28;21105;-74
2022/05/11 11:09:15;;;;;;;5.73;2.37;;;29.40;68.50;;;;;;4976632;28;20701;-74
2022/05/11 11:14:12;;;;;;;2.60;2.00;;;27.10;68.80;;;;;;4953998;29;20466;-75
2022/05/11 11:16:40;;;;;;;8.47;2.10;;;27.40;68.20;;;;;;4937553;29;20450;-74
2022/05/11 11:19:08;;;;;;;9.40;2.30;;;27.40;66.90;;;;;;4953791;29;20414;-74
2022/05/11 11:21:38;;;;;;;2.50;2.00;;;27.60;65.60;;;;;;4955331;29;20422;-75
2022/05/11 11:24:24;;;;;;;4.97;2.40;;;27.90;68.80;;;;;;4954933;29;20422;-75
2022/05/11 11:27:02;;;;;;;8.40;2.47;;;28.10;70.20;;;;;;4955367;29;20410;-75
2022/05/11 11:29:30;;;;;;;7.07;2.20;;;28.30;69.10;;;;;;4955191;29;20410;-75
2022/05/11 11:31:58;;;;;;;2.70;2.07;;;28.30;67.20;;;;;;4955339;29;20891;-75
2022/05/11 11:34:39;;;;;;;5.60;2.20;;;28.50;63.60;;;;;;4955548;29;20414;-75
2022/05/11 11:37:35;;;;;;;3.77;2.20;;;28.50;69.50;;;;;;4955395;29;20480;-74
2022/05/11 11:40:30;;;;;;;5.80;2.30;;;28.60;67.20;;;;;;4956509;28;20478;-75
2022/05/11 11:42:56;;;;;;;2.83;2.50;;;28.50;67.20;;;;;;4951305;28;20465;-73
2022/05/11 11:45:24;;;;;;;2.73;1.80;;;28.40;66.70;;;;;;4951708;28;20473;-74
2022/05/11 11:48:21;;;;;;;5.00;1.87;;;28.40;67.00;;;;;;4938298;29;20662;-73
2022/05/11 11:50:53;;;;;;;6.27;2.30;;;28.10;66.60;;;;;;4940241;29;20486;-74
2022/05/11 11:53:24;;;;;;;6.70;2.43;;;28.40;70.10;;;;;;4943409;29;20522;-74
2022/05/11 11:55:50;;;;;;;3.20;2.70;;;28.80;66.10;;;;;;4939101;29;20935;-74
2022/05/11 11:58:27;;;;;;;8.63;2.60;;;28.50;64.70;;;;;;4939452;29;20431;-75
2022/05/11 12:01:03;;;;;;;5.40;2.33;;;28.50;65.90;;;;;;4935634;29;20847;-74
2022/05/11 12:03:33;;;;;;;4.60;1.90;;;29.40;64.60;;;;;;4935753;29;20406;-74
2022/05/11 12:15:01;;;;;;;3.50;1.90;;;29.30;65.60;;;;;;4935592;29;20479;-75
2022/05/11 12:17:08;;;;;;;3.30;2.47;;;28.20;66.00;;;;;;4935547;29;20993;-75
2022/05/11 12:19:36;;;;;;;4.77;2.30;;;28.30;69.50;;;;;;4918188;29;20434;-74
2022/05/11 12:22:22;;;;;;;6.03;2.30;;;28.60;67.80;;;;;;4937582;29;20450;-73
2022/05/11 12:25:21;;;;;;;2.83;2.10;;;29.00;67.60;;;;;;4954422;29;20417;-74
2022/05/11 12:27:48;;;;;;;5.50;2.33;;;28.90;67.40;;;;;;4936091;29;20439;-74
2022/05/11 12:30:18;;;;;;;3.90;2.30;;;28.60;66.80;;;;;;4948931;29;20871;-75
2022/05/11 12:32:52;;;;;;;2.57;2.37;;;28.60;66.80;;;;;;4944084;29;20480;-74
2022/05/11 12:35:42;;;;;;;6.50;2.57;;;28.50;68.40;;;;;;4937675;29;20841;-74
2022/05/11 12:38:12;;;;;;;2.97;2.40;;;28.70;69.50;;;;;;4943150;29;20521;-75
2022/05/11 12:40:42;;;;;;;2.87;2.00;;;29.00;68.40;;;;;;4941291;29;20446;-75
2022/05/11 12:43:32;;;;;;;5.83;2.43;;;28.80;66.60;;;;;;4937817;29;20914;-75
2022/05/11 12:46:05;;;;;;;2.63;2.10;;;28.30;69.30;;;;;;4942281;29;20437;-74
2022/05/11 12:48:34;;;;;;;4.47;2.47;;;29.00;69.40;;;;;;4954077;29;20480;-74
2022/05/11 12:51:10;;;;;;;4.70;2.70;;;28.90;68.40;;;;;;4953743;29;20438;-74
2022/05/11 12:53:39;;;;;;;2.50;2.03;;;29.30;66.90;;;;;;4936804;29;21077;-74
2022/05/11 12:56:11;;;;;;;6.83;2.40;;;29.90;67.10;;;;;;4934518;29;20410;-75
2022/05/11 12:58:43;;;;;;;4.07;2.30;;;29.50;65.90;;;;;;4917831;29;20739;-74
2022/05/11 13:01:12;;;;;;;2.40;2.20;;;29.30;64.20;;;;;;4934920;29;20521;-74
2022/05/11 13:03:38;;;;;;;2.90;2.10;;;28.80;65.70;;;;;;4934754;29;20894;-75
2022/05/11 13:06:20;;;;;;;2.53;2.33;;;28.90;66.10;;;;;;4946802;29;20461;-75
2022/05/11 13:08:49;;;;;;;5.53;2.20;;;28.70;64.70;;;;;;4935763;29;20757;-74
2022/05/11 13:11:17;;;;;;;15.40;3.00;;;28.90;70.10;;;;;;4951774;29;20462;-75
2022/05/11 13:13:45;;;;;;;2.10;1.90;;;28.70;65.20;;;;;;4944003;29;20475;-75
2022/05/11 13:16:23;;;;;;;2.63;2.30;;;28.80;66.60;;;;;;4934807;29;20422;-75
2022/05/11 13:18:49;;;;;;;3.73;2.37;;;28.80;66.60;;;;;;4937991;29;20418;-74
2022/05/11 13:21:26;;;;;;;2.20;2.00;;;28.70;66.70;;;;;;4938744;29;20478;-75
2022/05/11 13:23:52;;;;;;;7.20;2.20;;;28.30;67.60;;;;;;4938783;29;20588;-75
2022/05/11 13:26:38;;;;;;;6.03;2.67;;;28.00;68.00;;;;;;4938677;29;20502;-75
2022/05/11 13:29:26;;;;;;;3.50;2.57;;;27.90;67.80;;;;;;4938340;29;20214;-75
2022/05/11 13:32:06;;;;;;;9.80;2.43;;;28.30;67.40;;;;;;4938653;29;20947;-75
2022/05/11 13:34:34;;;;;;;3.17;2.30;;;28.30;65.90;;;;;;4940305;29;20417;-73
2022/05/11 13:37:01;;;;;;;4.33;2.33;;;28.40;66.00;;;;;;4957254;29;20417;-75
2022/05/11 13:39:49;;;;;;;6.70;2.43;;;28.90;64.60;;;;;;4957073;28;20410;-74
2022/05/11 13:42:29;;;;;;;7.13;2.03;;;28.80;64.40;;;;;;4957541;28;20449;-76
2022/05/11 13:45:19;;;;;;;2.70;2.17;;;28.70;65.90;;;;;;4956035;28;20413;-77
2022/05/11 13:50:48;;;;;;;3.60;2.17;;;28.90;64.60;;;;;;4948531;29;20436;-75
2022/05/11 13:53:33;;;;;;;4.10;2.10;;;28.80;64.30;;;;;;4950450;29;20570;-77
2022/05/11 13:56:17;;;;;;;6.00;2.20;;;29.00;63.00;;;;;;4938323;29;20421;-75
2022/05/11 13:58:46;;;;;;;3.20;3.00;;;28.80;65.10;;;;;;4944767;29;20406;-75
2022/05/11 14:01:23;;;;;;;8.60;2.50;;;28.70;63.10;;;;;;4943048;29;20442;-75
2022/05/11 14:03:57;;;;;;;2.40;2.03;;;28.90;64.20;;;;;;4937749;29;20418;-75
2022/05/11 14:06:29;;;;;;;6.97;2.50;;;29.20;62.40;;;;;;4937873;29;20419;-75
2022/05/11 14:08:55;;;;;;;6.20;2.13;;;29.10;63.40;;;;;;4942613;29;20422;-73
2022/05/11 14:11:21;;;;;;;4.23;2.30;;;28.50;64.70;;;;;;4937553;29;20961;-74
2022/05/11 14:13:48;;;;;;;2.87;2.60;;;28.50;67.70;;;;;;4937768;29;20741;-73
2022/05/11 14:16:19;;;;;;;2.43;2.23;;;29.00;64.20;;;;;;4937875;29;20414;-75
2022/05/11 14:18:47;;;;;;;5.53;2.37;;;28.30;66.70;;;;;;4937241;29;20497;-74
2022/05/11 14:21:13;;;;;;;3.97;2.77;;;28.30;65.30;;;;;;4920395;29;20439;-76
2022/05/11 14:23:39;;;;;;;5.70;2.30;;;28.30;65.80;;;;;;4937627;29;20832;-75
2022/05/11 14:26:05;;;;;;;3.60;2.30;;;28.50;67.30;;;;;;4937681;29;20439;-76
2022/05/11 14:28:31;;;;;;;2.80;2.60;;;28.60;65.20;;;;;;4936858;29;20205;-75
2022/05/11 14:30:56;;;;;;;5.17;2.10;;;28.80;66.90;;;;;;4937517;29;20947;-75
2022/05/11 14:33:22;;;;;;;2.20;2.00;;;28.60;64.90;;;;;;4937356;29;20215;-75
2022/05/11 14:35:49;;;;;;;11.40;2.60;;;28.20;64.60;;;;;;4937498;29;20179;-75
2022/05/11 14:38:15;;;;;;;2.77;2.33;;;28.40;68.20;;;;;;4937329;29;20274;-75
2022/05/11 14:40:41;;;;;;;5.30;2.30;;;28.50;68.20;;;;;;4937211;29;20534;-75
2022/05/11 14:43:07;;;;;;;3.97;2.70;;;28.50;65.20;;;;;;4937382;29;20975;-75
2022/05/11 14:45:35;;;;;;;5.17;2.20;;;28.80;64.20;;;;;;4937206;29;20700;-76
2022/05/11 14:48:03;;;;;;;9.00;2.20;;;28.70;65.30;;;;;;4936880;29;20178;-75
2022/05/11 14:50:29;;;;;;;2.27;2.07;;;28.50;65.30;;;;;;4937201;29;20419;-78
2022/05/11 14:52:56;;;;;;;8.33;3.13;;;28.50;65.70;;;;;;4919954;29;20532;-76
2022/05/11 14:55:23;;;;;;;2.90;2.10;;;28.50;67.70;;;;;;4937192;29;20179;-76
2022/05/11 15:03:18;;;;;;;4.43;2.20;;;28.00;64.60;;;;;;4937138;29;20418;-75
2022/05/11 15:05:44;;;;;;;1.90;1.80;;;27.80;66.80;;;;;;4936954;29;20402;-75
2022/05/11 15:08:10;;;;;;;5.77;2.30;;;27.90;64.80;;;;;;4937452;29;20415;-75
2022/05/11 15:10:36;;;;;;;7.20;2.20;;;27.90;65.30;;;;;;4936647;29;20546;-76
2022/05/11 15:15:48;;;;;;;2.13;1.80;;;28.00;64.20;;;;;;4936855;29;20719;-75
2022/05/11 15:18:16;;;;;;;3.97;1.83;;;;;;;;;;4941279;29;20410;-76
2022/05/11 15:20:42;;;;;;;4.70;1.80;;;;;;;;;;4943443;29;20525;-76
2022/05/11 15:23:08;;;;;;;2.40;1.80;;;28.50;66.40;;;;;;4922027;29;20423;-76
2022/05/11 15:25:34;;;;;;;4.00;2.07;;;;;;;;;;4944785;29;20431;-76
2022/05/11 15:28:00;;;;;;;4.80;1.93;;;28.10;65.80;;;;;;4944531;29;20179;-76
2022/05/11 15:30:26;;;;;;;3.37;2.03;;;28.00;64.80;;;;;;4944458;29;20190;-76
2022/05/11 15:32:53;;;;;;;2.63;1.70;;;;;;;;;;4935091;29;20248;-76
2022/05/11 15:35:20;;;;;;;2.67;2.03;;;27.90;67.60;;;;;;4955332;29;20175;-76
2022/05/11 15:37:47;;;;;;;3.60;2.00;;;;;;;;;;4955262;29;20406;-76
2022/05/11 15:40:13;;;;;;;3.07;1.97;;;27.90;67.30;;;;;;4954786;28;20402;-76
2022/05/11 15:42:42;;;;;;;3.83;2.10;;;27.70;65.80;;;;;;4951570;29;20580;-76
2022/05/11 15:45:09;;;;;;;3.20;2.20;;;;;;;;;;4955220;29;20446;-76
2022/05/11 15:47:34;;;;;;;2.60;2.10;;;27.80;64.00;;;;;;4950055;29;20423;-76
2022/05/11 15:50:03;;;;;;;3.10;2.37;;;27.60;64.30;;;;;;4953266;29;20418;-75
2022/05/11 15:52:32;;;;;;;4.07;2.20;;;27.20;65.60;;;;;;4918946;29;20215;-75
2022/05/11 15:54:58;;;;;;;10.33;1.80;;;27.10;69.00;;;;;;4935886;29;20502;-74
2022/05/11 15:57:24;;;;;;;4.03;1.83;;;;;;;;;;4935935;29;20501;-75
2022/05/11 15:59:50;;;;;;;1.73;1.63;;;26.90;66.50;;;;;;4939992;29;20635;-75
2022/05/11 16:02:16;;;;;;;2.13;1.93;;;;;;;;;;4940055;28;20245;-76
2022/05/11 16:04:43;;;;;;;3.80;1.90;;;26.60;64.30;;;;;;4954871;29;20209;-75
2022/05/11 16:07:10;;;;;;;2.70;1.90;;;26.80;68.00;;;;;;4954817;29;20498;-76
2022/05/11 16:09:35;;;;;;;3.77;2.10;;;26.70;66.00;;;;;;4954571;29;20508;-76
2022/05/11 16:12:02;;;;;;;7.60;1.73;;;26.40;65.70;;;;;;4955507;29;20469;-75
2022/05/11 16:14:27;;;;;;;4.37;1.77;;;26.40;67.20;;;;;;4955016;29;20182;-75
2022/05/11 16:16:53;;;;;;;5.73;2.40;;;26.30;66.70;;;;;;4955205;29;20410;-76
2022/05/11 16:22:03;;;;;;;5.67;2.13;;;26.30;66.70;;;;;;4968971;28;20217;-73
2022/05/11 16:24:29;;;;;;;6.40;1.90;;;26.50;67.30;;;;;;4979753;28;21084;-73
2022/05/11 16:26:55;;;;;;;2.00;1.80;;;26.50;67.30;;;;;;4963352;28;20214;-73
2022/05/11 16:29:22;;;;;;;5.63;2.00;;;26.20;66.50;;;;;;4960983;29;20221;-75
2022/05/11 16:31:50;;;;;;;2.70;1.70;;;26.10;67.50;;;;;;4954406;28;20444;-76
2022/05/11 16:34:18;;;;;;;2.17;1.80;;;26.00;66.70;;;;;;4954620;29;20890;-75
2022/05/11 16:36:43;;;;;;;10.00;2.40;;;26.00;67.60;;;;;;4953995;29;20481;-74
2022/05/11 16:39:09;;;;;;;4.53;2.00;;;26.00;67.50;;;;;;4953700;29;20414;-75
2022/05/11 16:41:36;;;;;;;3.50;2.13;;;;;;;;;;4953626;29;20193;-76
2022/05/11 16:44:02;;;;;;;6.50;2.10;;;25.70;68.20;;;;;;4970350;28;20413;-75
2022/05/11 16:46:28;;;;;;;1.70;1.60;;;;;;;;;;4972999;28;20456;-75
2022/05/11 16:48:53;;;;;;;4.83;1.90;;;25.80;69.40;;;;;;4972505;28;20432;-76
2022/05/11 16:51:19;;;;;;;4.80;2.00;;;25.60;68.40;;;;;;4973462;28;20689;-75
2022/05/11 16:53:45;;;;;;;2.47;1.60;;;25.30;67.60;;;;;;4972766;28;20209;-74
2022/05/11 16:56:11;;;;;;;13.13;2.37;;;25.20;69.10;;;;;;4972872;28;20258;-75
2022/05/11 16:58:37;;;;;;;4.80;1.93;;;25.20;70.30;;;;;;4972604;28;20193;-75
2022/05/11 17:01:04;;;;;;;2.20;2.00;;;25.10;69.30;;;;;;4973128;28;20425;-76
2022/05/11 17:03:31;;;;;;;5.70;1.80;;;25.10;70.10;;;;;;4973336;28;20432;-77
2022/05/11 17:05:57;;;;;;;10.53;2.43;;;24.90;69.10;;;;;;4955180;28;21051;-74
2022/05/11 17:08:23;;;;;;;4.30;2.07;;;25.00;69.00;;;;;;4946747;29;20425;-76
2022/05/11 17:10:49;;;;;;;9.70;2.10;;;24.80;71.70;;;;;;4944749;29;20236;-76
2022/05/11 17:13:16;;;;;;;3.67;1.80;;;24.70;69.70;;;;;;4927528;29;20476;-76
2022/05/11 17:15:52;;;;;;;3.57;2.00;;;24.80;70.50;;;;;;4953491;28;20448;-76
2022/05/11 17:18:19;;;;;;;11.07;2.20;;;24.80;69.80;;;;;;4954463;29;20422;-77
2022/05/11 17:57:04;;;;;;;3.93;1.63;;;23.50;72.30;;;;;;5738536;23;20543;-75
2022/05/11 17:59:29;;;;;;;5.13;2.23;;;23.40;74.10;;;;;;4972439;28;20485;-75
2022/05/11 18:01:55;;;;;;;5.63;1.80;;;23.40;72.40;;;;;;4972351;28;20520;-75
2022/05/11 18:04:20;;;;;;;6.47;4.20;;;23.30;72.30;;;;;;4970668;28;20186;-75
2022/05/11 18:06:46;;;;;;;6.17;2.80;;;23.30;73.50;;;;;;4976292;28;20209;-75
2022/05/11 18:09:12;;;;;;;2.60;2.40;;;23.30;72.70;;;;;;4975806;28;20180;-75
2022/05/11 18:11:38;;;;;;;5.23;2.70;;;23.30;72.30;;;;;;4975702;28;20367;-77
2022/05/11 18:14:04;;;;;;;10.50;1.97;;;23.30;72.30;;;;;;4975956;28;20256;-74
2022/05/11 18:16:30;;;;;;;3.77;2.27;;;23.20;72.90;;;;;;4976073;28;20500;-74
2022/05/11 18:18:56;;;;;;;9.50;2.63;;;23.20;72.50;;;;;;4975495;28;20178;-74
2022/05/11 18:21:21;;;;;;;3.70;2.30;;;23.00;72.80;;;;;;4972809;28;20644;-74
2022/05/11 18:23:49;;;;;;;3.57;2.60;;;22.90;73.90;;;;;;4975634;28;20178;-75
2022/05/11 18:26:15;;;;;;;3.00;2.20;;;22.70;74.80;;;;;;4975588;28;20246;-75
2022/05/11 18:28:41;;;;;;;2.90;2.20;;;;;;;;;;4975123;28;20417;-75
2022/05/11 18:31:08;;;;;;;4.30;2.13;;;22.40;74.90;;;;;;4954425;28;20426;-74
2022/05/11 18:33:33;;;;;;;4.53;2.17;;;22.40;74.90;;;;;;4954684;29;20481;-75
2022/05/11 18:35:59;;;;;;;2.60;2.00;;;22.30;75.20;;;;;;4955800;29;20426;-74
2022/05/11 18:38:25;;;;;;;3.33;2.13;;;22.30;75.00;;;;;;4955917;29;20249;-74
2022/05/11 18:40:52;;;;;;;3.97;2.50;;;22.20;75.60;;;;;;4956377;29;20187;-74
2022/05/11 18:43:19;;;;;;;2.63;2.00;;;22.10;76.00;;;;;;4955852;29;20418;-75
2022/05/11 18:45:44;;;;;;;2.50;2.30;;;22.10;75.90;;;;;;4956335;29;20433;-74
2022/05/11 18:48:10;;;;;;;6.07;2.37;;;22.00;76.30;;;;;;4955673;29;20417;-74
2022/05/11 18:50:36;;;;;;;3.37;1.90;;;22.00;76.00;;;;;;4958666;28;20179;-74
2022/05/11 18:53:01;;;;;;;2.67;1.90;;;21.80;78.70;;;;;;4959230;28;20270;-75
2022/05/11 18:55:28;;;;;;;6.10;2.03;;;;;;;;;;4975096;28;20636;-74
2022/05/11 18:57:54;;;;;;;11.70;1.90;;;21.40;78.40;;;;;;4971574;28;20188;-74
2022/05/11 19:00:26;;;;;;;5.70;2.37;;;21.20;79.10;;;;;;4957517;28;20508;-74
2022/05/11 19:02:51;;;;;;;3.10;1.90;;;21.20;79.60;;;;;;4975068;28;20175;-74
2022/05/11 19:05:17;;;;;;;2.83;2.10;;;21.10;79.50;;;;;;4975316;28;20414;-74
2022/05/11 19:07:43;;;;;;;3.80;2.10;;;21.00;80.10;;;;;;4957296;28;20657;-75
2022/05/11 19:10:12;;;;;;;4.57;2.90;;;20.90;80.50;;;;;;4975130;28;20178;-75
2022/05/11 19:12:38;;;;;;;2.80;2.10;;;20.80;80.80;;;;;;4974779;28;20209;-74
2022/05/11 19:15:05;;;;;;;3.93;1.90;;;20.40;82.20;;;;;;4975196;28;20886;-74
2022/05/11 19:17:31;;;;;;;5.73;2.20;;;20.30;82.10;;;;;;4975763;28;20410;-75
2022/05/11 19:19:57;;;;;;;4.50;2.93;;;;;;;;;;4974952;28;20410;-74
2022/05/11 19:22:23;;;;;;;3.57;2.20;;;;;;;;;;4974339;28;20711;-75
2022/05/11 19:24:49;;;;;;;12.13;2.27;;;;;;;;;;4974700;28;20208;-74
2022/05/11 19:27:18;;;;;;;6.53;2.17;;;19.90;84.90;;;;;;4974570;28;20182;-73
2022/05/11 19:29:43;;;;;;;4.97;2.83;;;19.70;85.90;;;;;;4974534;28;20424;-73
2022/05/11 19:32:09;;;;;;;2.60;2.40;;;19.40;86.80;;;;;;4974551;28;20438;-75
2022/05/11 19:34:34;;;;;;;4.13;2.77;;;19.30;87.60;;;;;;4974703;28;20189;-73
2022/05/11 19:37:01;;;;;;;5.57;2.40;;;19.60;84.70;;;;;;4974685;28;20174;-74
2022/05/11 19:39:27;;;;;;;3.10;2.20;;;19.90;83.80;;;;;;4974282;28;20627;-73
2022/05/11 19:41:55;;;;;;;2.40;2.00;;;20.20;83.20;;;;;;4974527;28;20437;-73
2022/05/11 19:44:25;;;;;;;3.33;2.20;;;20.20;83.50;;;;;;4974495;28;20414;-73
2022/05/11 19:46:53;;;;;;;5.17;2.20;;;20.20;83.80;;;;;;4974394;28;20513;-73
2022/05/11 19:49:20;;;;;;;10.93;3.10;;;20.20;83.70;;;;;;4973958;28;20459;-73
2022/05/11 19:51:46;;;;;;;6.10;2.57;;;20.10;83.80;;;;;;4963208;28;20517;-75
2022/05/11 19:54:12;;;;;;;7.40;2.57;;;;;;;;;;4968670;28;20642;-75
2022/05/11 19:56:39;;;;;;;3.97;2.33;;;20.00;84.30;;;;;;4967911;28;20950;-73
2022/05/11 19:59:09;;;;;;;4.10;3.00;;;20.20;83.50;;;;;;4969634;28;20430;-73
2022/05/11 20:01:35;;;;;;;5.50;2.17;;;20.30;83.30;;;;;;4968074;28;20825;-73
2022/05/11 20:04:01;;;;;;;4.70;2.27;;;20.30;83.00;;;;;;4973954;28;20476;-72
2022/05/11 20:06:27;;;;;;;2.97;2.77;;;20.30;83.70;;;;;;4974096;28;20422;-72
2022/05/11 20:08:54;;;;;;;6.03;2.30;;;20.10;84.10;;;;;;4973854;28;20476;-72
2022/05/11 20:11:28;;;;;;;2.60;2.40;;;20.10;84.00;;;;;;4973867;28;20433;-73
2022/05/11 20:13:55;;;;;;;3.43;2.70;;;20.00;84.90;;;;;;4973875;28;20460;-74
2022/05/11 20:16:20;;;;;;;3.97;2.07;;;19.60;87.60;;;;;;4973860;28;20449;-74
2022/05/11 20:18:49;;;;;;;3.20;2.20;;;;;;;;;;4973568;28;20899;-73
2022/05/11 20:21:14;;;;;;;3.43;2.70;;;19.20;87.30;;;;;;4973789;28;20792;-76
2022/05/11 20:23:41;;;;;;;5.17;3.10;;;19.30;87.70;;;;;;4959507;28;20486;-72
2022/05/11 20:26:09;;;;;;;3.63;2.60;;;19.20;88.70;;;;;;4954520;28;20233;-76
2022/05/11 20:28:34;;;;;;;3.73;2.53;;;19.00;89.00;;;;;;4964298;28;20497;-72
2022/05/11 20:36:29;;;;;;;7.83;3.00;;;19.40;88.10;;;;;;4973919;28;21013;-72
2022/05/11 20:38:57;;;;;;;4.80;2.40;;;19.40;87.90;;;;;;4973562;28;20468;-73
2022/05/11 20:41:22;;;;;;;2.50;2.20;;;19.40;88.40;;;;;;4973226;28;20826;-73
2022/05/11 20:43:48;;;;;;;4.60;2.77;;;19.50;88.00;;;;;;4970465;28;20487;-74
2022/05/11 20:46:14;;;;;;;3.47;2.30;;;;;;;;;;4971649;28;20205;-74
2022/05/11 20:48:39;;;;;;;3.33;2.30;;;19.60;87.80;;;;;;4971461;28;20293;-74
2022/05/11 20:51:05;;;;;;;8.60;2.60;;;19.60;88.10;;;;;;4971625;28;20213;-74
2022/05/11 20:53:31;;;;;;;3.60;2.30;;;19.60;88.20;;;;;;4971527;28;20357;-74
2022/05/11 20:55:56;;;;;;;3.53;2.67;;;19.70;88.10;;;;;;4954142;28;20178;-74
2022/05/11 20:58:22;;;;;;;7.53;3.13;;;19.50;89.00;;;;;;4971072;28;20594;-75
2022/05/11 21:00:47;;;;;;;6.50;2.60;;;19.30;89.30;;;;;;4955302;28;20289;-75
2022/05/11 21:03:13;;;;;;;4.93;2.43;;;19.40;88.90;;;;;;4973432;28;20197;-75
2022/05/11 21:05:39;;;;;;;6.67;3.30;;;19.60;88.10;;;;;;4973491;28;20175;-76
2022/05/11 21:08:05;;;;;;;5.87;2.60;;;19.60;88.60;;;;;;4973086;28;20306;-75